Circleville, Texas
Current Conditions -  °F | °C
As of 2:51 PM on Thursday 27 Nov 2014 (Local Time) from KATT Reporting Station
Clear Clear  
Wind Chill: 63°   Ceiling: Unl
Heat Index: 63°   Visibility: 10mi
Dew Point: 31°   Wind: 3mph
Humidity: 30%   Direction: NA
Pressure: 30.42"   Gusts: NA
Location:  30.265°N, 97.9624°W
Report Text: KATT 272051Z AUTO VRB03KT 10SM CLR 17/M01 A3042 RMK AO2 SLP301 T01721006 56031
Loading
Personal Weather Stations






























Interactive Weather Map New forecast layout! Learn more

10-Day Weather Forecast

Advertisements
Track Severe Weather on mobile